createdAt,value
2019-05-16T00:00:11.465Z,1018.13
2019-05-16T00:00:45.158Z,1018.13
2019-05-16T00:01:11.332Z,1018.15
2019-05-16T00:01:41.390Z,1018.11
2019-05-16T00:02:11.482Z,1018.08
2019-05-16T00:02:41.403Z,1018.06
2019-05-16T00:03:11.361Z,1018.04
2019-05-16T00:03:41.446Z,1018.02
2019-05-16T00:04:11.355Z,1018.02
2019-05-16T00:04:41.419Z,1018.02
2019-05-16T00:05:11.338Z,1018.00
2019-05-16T00:05:51.323Z,1018.00
2019-05-16T00:06:11.368Z,1018.00
2019-05-16T00:06:41.398Z,1017.97
2019-05-16T00:07:11.328Z,1017.98
2019-05-16T00:07:41.390Z,1017.94
2019-05-16T00:08:15.148Z,1017.96
2019-05-16T00:08:41.508Z,1017.94
2019-05-16T00:09:11.343Z,1017.92
2019-05-16T00:09:41.407Z,1017.94
2019-05-16T00:10:13.279Z,1017.96
2019-05-16T00:10:41.398Z,1017.95
2019-05-16T00:11:14.132Z,1017.93
2019-05-16T00:11:41.389Z,1017.92
2019-05-16T00:12:11.445Z,1017.93
2019-05-16T00:12:41.405Z,1017.91
2019-05-16T00:13:11.330Z,1017.91
2019-05-16T00:13:41.402Z,1017.89
2019-05-16T00:14:11.333Z,1017.87
2019-05-16T00:14:41.460Z,1017.87
2019-05-16T00:15:11.664Z,1017.84
2019-05-16T00:15:41.394Z,1017.83
2019-05-16T00:16:11.338Z,1017.81
2019-05-16T00:16:41.471Z,1017.81
2019-05-16T00:17:11.343Z,1017.81
2019-05-16T00:17:41.403Z,1017.82
2019-05-16T00:18:11.346Z,1017.79
2019-05-16T00:18:44.316Z,1017.81
2019-05-16T00:19:11.344Z,1017.78
2019-05-16T00:19:41.399Z,1017.78
2019-05-16T00:20:11.334Z,1017.77
2019-05-16T00:20:43.382Z,1017.79
2019-05-16T00:21:11.341Z,1017.78
2019-05-16T00:21:44.099Z,1017.77
2019-05-16T00:22:11.338Z,1017.78
2019-05-16T00:22:41.399Z,1017.77
2019-05-16T00:23:11.350Z,1017.77
2019-05-16T00:23:41.401Z,1017.74
2019-05-16T00:24:11.337Z,1017.76
2019-05-16T00:24:41.397Z,1017.76
2019-05-16T00:25:11.329Z,1017.73
2019-05-16T00:25:41.437Z,1017.71
2019-05-16T00:26:11.335Z,1017.75
2019-05-16T00:26:41.412Z,1017.72
2019-05-16T00:27:11.362Z,1017.70
2019-05-16T00:27:41.411Z,1017.69
2019-05-16T00:28:11.339Z,1017.70
2019-05-16T00:28:41.423Z,1017.66
2019-05-16T00:29:14.307Z,1017.69
2019-05-16T00:29:41.391Z,1017.70
2019-05-16T00:30:11.371Z,1017.66
2019-05-16T00:30:41.398Z,1017.65
2019-05-16T00:31:13.373Z,1017.62
2019-05-16T00:31:41.405Z,1017.62
2019-05-16T00:32:14.227Z,1017.66
2019-05-16T00:32:41.408Z,1017.64
2019-05-16T00:33:11.373Z,1017.61
2019-05-16T00:33:41.569Z,1017.59
2019-05-16T00:34:11.341Z,1017.58
2019-05-16T00:34:41.420Z,1017.56
2019-05-16T00:35:11.351Z,1017.56
2019-05-16T00:35:41.400Z,1017.57
2019-05-16T00:36:11.363Z,1017.55
2019-05-16T00:36:41.401Z,1017.55
2019-05-16T00:37:11.338Z,1017.51
2019-05-16T00:37:41.471Z,1017.53
2019-05-16T00:38:11.349Z,1017.53
2019-05-16T00:38:41.401Z,1017.54
2019-05-16T00:39:12.346Z,1017.52
2019-05-16T00:40:11.337Z,1017.50
2019-05-16T00:40:41.397Z,1017.48
2019-05-16T00:41:11.344Z,1017.49
2019-05-16T00:41:43.279Z,1017.50
2019-05-16T00:42:11.345Z,1017.46
2019-05-16T00:42:44.172Z,1017.45
2019-05-16T00:43:11.358Z,1017.46
2019-05-16T00:43:41.409Z,1017.42
2019-05-16T00:44:11.374Z,1017.42
2019-05-16T00:44:41.396Z,1017.43
2019-05-16T00:45:14.362Z,1017.39
2019-05-16T00:45:41.435Z,1017.40
2019-05-16T00:46:11.348Z,1017.37
2019-05-16T00:46:41.441Z,1017.39
2019-05-16T00:47:11.347Z,1017.39
2019-05-16T00:47:41.395Z,1017.38
2019-05-16T00:48:11.341Z,1017.37
2019-05-16T00:48:41.402Z,1017.36
2019-05-16T00:49:11.345Z,1017.36
2019-05-16T00:49:41.404Z,1017.34
2019-05-16T00:50:14.260Z,1017.33
2019-05-16T00:50:41.402Z,1017.33
2019-05-16T00:51:11.346Z,1017.36
2019-05-16T00:51:41.403Z,1017.33
2019-05-16T00:52:41.401Z,1017.33
2019-05-16T00:53:14.269Z,1017.32
2019-05-16T00:53:41.408Z,1017.33
2019-05-16T00:54:11.480Z,1017.34
2019-05-16T00:54:41.399Z,1017.32
2019-05-16T00:55:11.338Z,1017.31
2019-05-16T00:55:41.404Z,1017.33
2019-05-16T00:56:11.351Z,1017.31
2019-05-16T00:56:41.407Z,1017.34
2019-05-16T00:57:41.401Z,1017.30
2019-05-16T00:58:11.353Z,1017.28
2019-05-16T00:58:41.401Z,1017.26
2019-05-16T00:59:11.347Z,1017.28
2019-05-16T01:00:11.342Z,1017.28
2019-05-16T01:00:44.554Z,1017.25
2019-05-16T01:01:11.350Z,1017.25
2019-05-16T01:01:41.403Z,1017.24
2019-05-16T01:02:11.357Z,1017.20
2019-05-16T01:02:43.417Z,1017.22
2019-05-16T01:03:11.341Z,1017.22
2019-05-16T01:03:44.332Z,1017.24
2019-05-16T01:04:11.349Z,1017.21
2019-05-16T01:04:41.533Z,1017.21
2019-05-16T01:05:14.096Z,1017.23
2019-05-16T01:05:41.410Z,1017.18
2019-05-16T01:06:21.870Z,1017.20
2019-05-16T01:06:41.410Z,1017.19
2019-05-16T01:07:11.349Z,1017.15
2019-05-16T01:07:41.459Z,1017.15
2019-05-16T01:08:11.343Z,1017.12
2019-05-16T01:08:41.418Z,1017.16
2019-05-16T01:09:11.342Z,1017.16
2019-05-16T01:10:11.340Z,1017.11
2019-05-16T01:10:41.528Z,1017.11
2019-05-16T01:11:14.153Z,1017.13
2019-05-16T01:11:41.403Z,1017.10
2019-05-16T01:12:11.341Z,1017.09
2019-05-16T01:12:41.412Z,1017.09
2019-05-16T01:13:13.191Z,1017.10
2019-05-16T01:13:41.410Z,1017.05
2019-05-16T01:14:14.315Z,1017.07
2019-05-16T01:14:41.402Z,1017.07
2019-05-16T01:15:11.538Z,1017.04
2019-05-16T01:15:41.407Z,1017.03
2019-05-16T01:16:11.345Z,1017.02
2019-05-16T01:16:41.406Z,1017.03
2019-05-16T01:17:11.451Z,1017.04
2019-05-16T01:17:41.420Z,1017.04
2019-05-16T01:18:11.401Z,1017.04
2019-05-16T01:18:41.434Z,1017.06
2019-05-16T01:19:11.469Z,1017.04
2019-05-16T01:19:41.434Z,1017.03
2019-05-16T01:20:11.352Z,1017.05
2019-05-16T01:20:41.411Z,1017.04
2019-05-16T01:21:11.410Z,1017.05
2019-05-16T01:21:44.317Z,1017.05
2019-05-16T01:22:11.342Z,1017.02
2019-05-16T01:22:41.404Z,1017.04
2019-05-16T01:23:11.407Z,1017.05
2019-05-16T01:23:43.340Z,1017.01
2019-05-16T01:24:11.348Z,1017.04
2019-05-16T01:25:11.383Z,1017.01
2019-05-16T01:25:41.405Z,1016.99
2019-05-16T01:26:11.355Z,1017.01
2019-05-16T01:26:41.409Z,1017.00
2019-05-16T01:27:11.349Z,1017.01
2019-05-16T01:27:41.609Z,1016.99
2019-05-16T01:28:11.351Z,1017.01
2019-05-16T01:28:41.451Z,1017.00
2019-05-16T01:29:13.373Z,1017.00
2019-05-16T01:29:41.501Z,1017.02
2019-05-16T01:30:11.359Z,1016.99
2019-05-16T01:30:41.418Z,1016.98
2019-05-16T01:31:11.343Z,1016.99
2019-05-16T01:31:41.427Z,1016.99
2019-05-16T01:32:41.407Z,1016.99
2019-05-16T01:33:11.371Z,1017.02
2019-05-16T01:33:41.470Z,1017.01
2019-05-16T01:34:13.363Z,1017.01
2019-05-16T01:34:41.414Z,1017.01
2019-05-16T01:35:14.284Z,1017.02
2019-05-16T01:35:43.436Z,1017.00
2019-05-16T01:36:11.350Z,1017.03
2019-05-16T01:36:42.507Z,1017.01
2019-05-16T01:37:41.410Z,1017.05
2019-05-16T01:38:11.348Z,1017.08
2019-05-16T01:38:41.419Z,1017.08
2019-05-16T01:39:11.445Z,1017.06
2019-05-16T01:40:11.361Z,1017.07
2019-05-16T01:40:41.414Z,1017.08
2019-05-16T01:41:11.357Z,1017.10
2019-05-16T01:41:41.422Z,1017.09
2019-05-16T01:42:44.461Z,1017.06
2019-05-16T01:43:11.351Z,1017.05
2019-05-16T01:43:41.418Z,1017.05
2019-05-16T01:44:11.486Z,1017.07
2019-05-16T01:45:11.368Z,1017.05
2019-05-16T01:45:44.298Z,1017.07
2019-05-16T01:46:11.427Z,1017.05
2019-05-16T01:46:41.412Z,1017.04
2019-05-16T01:47:11.354Z,1017.06
2019-05-16T01:47:41.410Z,1017.05
2019-05-16T01:48:11.388Z,1017.05
2019-05-16T01:48:41.424Z,1017.02
2019-05-16T01:49:11.362Z,1017.02
2019-05-16T01:49:41.455Z,1017.04
2019-05-16T01:50:11.492Z,1017.05
2019-05-16T01:50:41.417Z,1017.05
2019-05-16T01:51:11.363Z,1017.03
2019-05-16T01:51:41.418Z,1017.02
2019-05-16T01:52:41.449Z,1017.03
2019-05-16T01:53:14.257Z,1017.02
2019-05-16T01:53:41.421Z,1016.96
2019-05-16T01:54:11.373Z,1016.99
2019-05-16T01:55:13.278Z,1017.00
2019-05-16T01:55:41.414Z,1016.98
2019-05-16T01:56:14.202Z,1017.00
2019-05-16T01:56:41.413Z,1016.98
2019-05-16T01:57:11.357Z,1016.98
2019-05-16T01:57:41.422Z,1016.96
2019-05-16T01:58:11.393Z,1016.96
2019-05-16T01:58:41.452Z,1016.95
2019-05-16T01:59:11.354Z,1016.93
2019-05-16T02:00:11.390Z,1016.91
2019-05-16T02:00:58.004Z,1016.90
2019-05-16T02:01:18.726Z,1016.91
2019-05-16T02:01:41.424Z,1016.90
2019-05-16T02:02:41.436Z,1016.89
2019-05-16T02:03:11.370Z,1016.90
2019-05-16T02:03:44.394Z,1016.89
2019-05-16T02:04:13.378Z,1016.90
2019-05-16T02:05:11.362Z,1016.89
2019-05-16T02:05:43.390Z,1016.89
2019-05-16T02:06:11.354Z,1016.88
2019-05-16T02:06:54.818Z,1016.89
2019-05-16T02:07:11.356Z,1016.88
2019-05-16T02:07:41.418Z,1016.86
2019-05-16T02:08:11.366Z,1016.85
2019-05-16T02:08:41.426Z,1016.84
2019-05-16T02:09:13.469Z,1016.85
2019-05-16T02:09:41.431Z,1016.83
2019-05-16T02:10:11.360Z,1016.83
2019-05-16T02:10:41.460Z,1016.79
2019-05-16T02:11:11.450Z,1016.80
2019-05-16T02:11:41.427Z,1016.81
2019-05-16T02:12:41.424Z,1016.76
2019-05-16T02:13:11.448Z,1016.78
2019-05-16T02:13:41.413Z,1016.76
2019-05-16T02:14:14.256Z,1016.79
2019-05-16T02:15:11.356Z,1016.73
2019-05-16T02:15:41.422Z,1016.74
2019-05-16T02:16:13.303Z,1016.72
2019-05-16T02:16:41.422Z,1016.73
2019-05-16T02:17:23.132Z,1016.71
2019-05-16T02:17:41.412Z,1016.74
2019-05-16T02:18:11.440Z,1016.71
2019-05-16T02:18:41.416Z,1016.74
2019-05-16T02:19:11.356Z,1016.75
2019-05-16T02:20:11.513Z,1016.73
2019-05-16T02:20:41.424Z,1016.73
2019-05-16T02:21:11.380Z,1016.74
2019-05-16T02:21:41.434Z,1016.71
2019-05-16T02:22:41.425Z,1016.74
2019-05-16T02:23:11.363Z,1016.73
2019-05-16T02:23:41.430Z,1016.73
2019-05-16T02:24:11.358Z,1016.75
2019-05-16T02:25:11.357Z,1016.72
2019-05-16T02:25:45.198Z,1016.73
2019-05-16T02:26:11.366Z,1016.72
2019-05-16T02:26:43.334Z,1016.75
2019-05-16T02:27:11.358Z,1016.75
2019-05-16T02:27:53.128Z,1016.76
2019-05-16T02:28:11.365Z,1016.73
2019-05-16T02:28:47.116Z,1016.72
2019-05-16T02:29:14.399Z,1016.71
2019-05-16T02:29:41.430Z,1016.74
2019-05-16T02:30:13.382Z,1016.72
2019-05-16T02:30:43.440Z,1016.68
2019-05-16T02:31:15.753Z,1016.70
2019-05-16T02:31:43.441Z,1016.69
2019-05-16T02:32:43.453Z,1016.71
2019-05-16T02:33:13.389Z,1016.70
2019-05-16T02:33:42.429Z,1016.71
2019-05-16T02:34:12.374Z,1016.69
2019-05-16T02:35:14.171Z,1016.67
2019-05-16T02:35:42.442Z,1016.67
2019-05-16T02:36:11.467Z,1016.70
2019-05-16T02:36:42.434Z,1016.64
2019-05-16T02:37:28.945Z,1016.67
2019-05-16T02:38:17.184Z,1016.64
2019-05-16T02:38:43.446Z,1016.60
2019-05-16T02:39:13.422Z,1016.62
2019-05-16T02:39:42.430Z,1016.61
2019-05-16T02:40:13.384Z,1016.60
2019-05-16T02:40:43.457Z,1016.59
2019-05-16T02:41:11.367Z,1016.55
2019-05-16T02:41:46.471Z,1016.54
2019-05-16T02:42:13.398Z,1016.51
2019-05-16T02:42:43.490Z,1016.50
2019-05-16T02:43:13.379Z,1016.51
2019-05-16T02:43:43.448Z,1016.50
2019-05-16T02:44:13.386Z,1016.49
2019-05-16T02:44:43.567Z,1016.48
2019-05-16T02:45:12.376Z,1016.48
2019-05-16T02:45:44.220Z,1016.49
2019-05-16T02:46:12.382Z,1016.47
2019-05-16T02:46:46.176Z,1016.51
2019-05-16T02:47:11.365Z,1016.50
2019-05-16T02:47:44.266Z,1016.50
2019-05-16T02:48:12.387Z,1016.49
2019-05-16T02:48:47.206Z,1016.50
2019-05-16T02:49:13.388Z,1016.51
2019-05-16T02:49:43.465Z,1016.49
2019-05-16T02:50:13.396Z,1016.49
2019-05-16T02:50:43.448Z,1016.50
2019-05-16T02:51:12.375Z,1016.50
2019-05-16T02:51:42.439Z,1016.52
2019-05-16T02:52:11.367Z,1016.52
2019-05-16T02:52:43.439Z,1016.53
2019-05-16T02:53:13.398Z,1016.51
2019-05-16T02:53:43.445Z,1016.51
2019-05-16T02:54:11.406Z,1016.53
2019-05-16T02:54:43.454Z,1016.51
2019-05-16T02:55:12.410Z,1016.52
2019-05-16T02:55:42.438Z,1016.53
2019-05-16T02:56:14.230Z,1016.52
2019-05-16T02:56:43.457Z,1016.54
2019-05-16T02:57:43.495Z,1016.52
2019-05-16T02:58:13.169Z,1016.52
2019-05-16T02:58:46.488Z,1016.54
2019-05-16T02:59:17.096Z,1016.53
2019-05-16T02:59:43.452Z,1016.51
2019-05-16T03:00:13.439Z,1016.52
2019-05-16T03:00:43.451Z,1016.53
2019-05-16T03:01:12.473Z,1016.50
2019-05-16T03:01:42.431Z,1016.50
2019-05-16T03:02:13.418Z,1016.50
2019-05-16T03:02:43.444Z,1016.50
2019-05-16T03:03:13.440Z,1016.51
2019-05-16T03:03:44.490Z,1016.50
2019-05-16T03:04:12.381Z,1016.47
2019-05-16T03:05:13.398Z,1016.47
2019-05-16T03:05:43.467Z,1016.49
2019-05-16T03:06:12.379Z,1016.49
2019-05-16T03:06:44.215Z,1016.47
2019-05-16T03:07:52.050Z,1016.47
2019-05-16T03:08:13.390Z,1016.47
2019-05-16T03:08:43.214Z,1016.50
2019-05-16T03:09:12.416Z,1016.50
2019-05-16T03:09:47.185Z,1016.50
2019-05-16T03:10:12.379Z,1016.50
2019-05-16T03:10:43.451Z,1016.52
2019-05-16T03:11:13.397Z,1016.52
2019-05-16T03:11:43.464Z,1016.53
2019-05-16T03:12:12.395Z,1016.51
2019-05-16T03:12:42.438Z,1016.54
2019-05-16T03:13:12.374Z,1016.52
2019-05-16T03:13:43.451Z,1016.55
2019-05-16T03:14:13.417Z,1016.57
2019-05-16T03:14:43.524Z,1016.55
2019-05-16T03:15:12.386Z,1016.54
2019-05-16T03:15:42.485Z,1016.54
2019-05-16T03:16:13.392Z,1016.55
2019-05-16T03:16:43.447Z,1016.52
2019-05-16T03:17:14.254Z,1016.52
2019-05-16T03:17:42.437Z,1016.53
2019-05-16T03:18:16.201Z,1016.55
2019-05-16T03:18:43.448Z,1016.52
2019-05-16T03:19:13.290Z,1016.54
2019-05-16T03:19:43.451Z,1016.53
2019-05-16T03:20:14.113Z,1016.52
2019-05-16T03:20:42.442Z,1016.52
2019-05-16T03:21:13.457Z,1016.51
2019-05-16T03:21:43.456Z,1016.49
2019-05-16T03:22:13.393Z,1016.51
2019-05-16T03:23:12.389Z,1016.46
2019-05-16T03:23:43.492Z,1016.48
2019-05-16T03:24:13.499Z,1016.47
2019-05-16T03:24:43.454Z,1016.46
2019-05-16T03:25:43.450Z,1016.44
2019-05-16T03:26:13.414Z,1016.45
2019-05-16T03:26:42.447Z,1016.41
2019-05-16T03:27:11.381Z,1016.43
2019-05-16T03:28:12.442Z,1016.40
2019-05-16T03:28:46.126Z,1016.40
2019-05-16T03:29:13.412Z,1016.40
2019-05-16T03:29:43.217Z,1016.41
2019-05-16T03:30:47.176Z,1016.41
2019-05-16T03:31:16.413Z,1016.40
2019-05-16T03:31:53.915Z,1016.41
2019-05-16T03:32:16.420Z,1016.39
2019-05-16T03:33:25.751Z,1016.37
2019-05-16T03:33:51.498Z,1016.38
2019-05-16T03:34:17.211Z,1016.39
2019-05-16T03:34:46.618Z,1016.38
2019-05-16T03:35:46.486Z,1016.38
2019-05-16T03:36:16.620Z,1016.38
2019-05-16T03:36:46.475Z,1016.37
2019-05-16T03:37:16.420Z,1016.39
2019-05-16T03:38:14.263Z,1016.40
2019-05-16T03:38:43.464Z,1016.40
2019-05-16T03:39:15.200Z,1016.38
2019-05-16T03:39:42.454Z,1016.40
2019-05-16T03:40:43.598Z,1016.42
2019-05-16T03:41:17.251Z,1016.38
2019-05-16T03:41:43.453Z,1016.40
2019-05-16T03:42:13.399Z,1016.39
2019-05-16T03:43:12.383Z,1016.38
2019-05-16T03:43:43.470Z,1016.39
2019-05-16T03:44:13.401Z,1016.37
2019-05-16T03:44:42.456Z,1016.37
2019-05-16T03:45:43.461Z,1016.36
2019-05-16T03:46:12.432Z,1016.34
2019-05-16T03:46:43.466Z,1016.35
2019-05-16T03:47:13.397Z,1016.35
2019-05-16T03:48:15.703Z,1016.34
2019-05-16T03:48:44.257Z,1016.36
2019-05-16T03:49:13.607Z,1016.36
2019-05-16T03:49:46.104Z,1016.33
2019-05-16T03:50:43.188Z,1016.35
2019-05-16T03:51:13.408Z,1016.36
2019-05-16T03:51:47.167Z,1016.39
2019-05-16T03:52:13.397Z,1016.34
2019-05-16T03:53:13.530Z,1016.37
2019-05-16T03:53:42.476Z,1016.37
2019-05-16T03:54:13.816Z,1016.35
2019-05-16T03:54:43.463Z,1016.36
2019-05-16T03:55:11.774Z,1016.38
2019-05-16T03:55:42.448Z,1016.38
2019-05-16T03:56:13.402Z,1016.38
2019-05-16T03:56:42.456Z,1016.37
2019-05-16T03:57:13.435Z,1016.36
2019-05-16T03:58:13.408Z,1016.35
2019-05-16T03:58:43.459Z,1016.33
2019-05-16T03:59:14.376Z,1016.34
2019-05-16T03:59:42.448Z,1016.37
2019-05-16T04:00:46.599Z,1016.33
2019-05-16T04:01:13.348Z,1016.33
2019-05-16T04:01:42.456Z,1016.33
2019-05-16T04:02:15.090Z,1016.35
2019-05-16T04:03:13.399Z,1016.32
2019-05-16T04:03:43.539Z,1016.32
2019-05-16T04:04:13.399Z,1016.32
2019-05-16T04:04:43.463Z,1016.30
2019-05-16T04:05:43.552Z,1016.27
2019-05-16T04:06:13.397Z,1016.28
2019-05-16T04:06:43.472Z,1016.26
2019-05-16T04:07:12.394Z,1016.25
2019-05-16T04:08:20.392Z,1016.25
2019-05-16T04:08:43.469Z,1016.26
2019-05-16T04:09:13.414Z,1016.25
2019-05-16T04:09:44.393Z,1016.25
2019-05-16T04:10:11.570Z,1016.25
2019-05-16T04:10:45.071Z,1016.26
2019-05-16T04:11:13.406Z,1016.28
2019-05-16T04:11:44.197Z,1016.25
2019-05-16T04:12:12.393Z,1016.27
2019-05-16T04:13:13.409Z,1016.26
2019-05-16T04:13:42.459Z,1016.24
2019-05-16T04:14:12.397Z,1016.27
2019-05-16T04:14:42.514Z,1016.28
2019-05-16T04:15:42.455Z,1016.26
2019-05-16T04:16:13.548Z,1016.29
2019-05-16T04:16:43.504Z,1016.28
2019-05-16T04:17:12.398Z,1016.29
2019-05-16T04:18:13.511Z,1016.30
2019-05-16T04:18:43.461Z,1016.30
2019-05-16T04:19:13.406Z,1016.30
2019-05-16T04:19:43.504Z,1016.31
2019-05-16T04:20:42.462Z,1016.30
2019-05-16T04:21:21.715Z,1016.31
2019-05-16T04:21:43.472Z,1016.28
2019-05-16T04:22:13.228Z,1016.28
2019-05-16T04:23:20.361Z,1016.26
2019-05-16T04:23:43.466Z,1016.26
2019-05-16T04:24:13.456Z,1016.26
2019-05-16T04:24:43.470Z,1016.28
2019-05-16T04:25:42.457Z,1016.24
2019-05-16T04:26:12.402Z,1016.25
2019-05-16T04:26:42.461Z,1016.25
2019-05-16T04:27:13.437Z,1016.22
2019-05-16T04:28:13.425Z,1016.22
2019-05-16T04:28:43.469Z,1016.20
2019-05-16T04:29:13.406Z,1016.21
2019-05-16T04:29:42.454Z,1016.22
2019-05-16T04:30:44.495Z,1016.21
2019-05-16T04:31:11.501Z,1016.22
2019-05-16T04:31:46.119Z,1016.19
2019-05-16T04:32:12.424Z,1016.20
2019-05-16T04:33:12.403Z,1016.21
2019-05-16T04:33:47.131Z,1016.19
2019-05-16T04:34:13.401Z,1016.20
2019-05-16T04:34:43.500Z,1016.19
2019-05-16T04:35:42.459Z,1016.24
2019-05-16T04:36:11.401Z,1016.22
2019-05-16T04:36:42.457Z,1016.20
2019-05-16T04:37:12.403Z,1016.20
2019-05-16T04:38:31.398Z,1016.21
2019-05-16T04:38:47.080Z,1016.24
2019-05-16T04:39:13.412Z,1016.22
2019-05-16T04:39:43.473Z,1016.25
2019-05-16T04:40:43.470Z,1016.24
2019-05-16T04:41:14.216Z,1016.25
2019-05-16T04:41:42.694Z,1016.25
2019-05-16T04:42:15.135Z,1016.25
2019-05-16T04:43:13.218Z,1016.26
2019-05-16T04:43:43.471Z,1016.23
2019-05-16T04:44:15.170Z,1016.23
2019-05-16T04:44:43.472Z,1016.23
2019-05-16T04:45:43.707Z,1016.21
2019-05-16T04:46:13.416Z,1016.22
2019-05-16T04:46:42.455Z,1016.21
2019-05-16T04:47:11.393Z,1016.23
2019-05-16T04:48:12.400Z,1016.24
2019-05-16T04:48:43.479Z,1016.24
2019-05-16T04:49:13.410Z,1016.25
2019-05-16T04:49:42.463Z,1016.25
2019-05-16T04:50:43.472Z,1016.24
2019-05-16T04:51:12.417Z,1016.23
2019-05-16T04:51:44.356Z,1016.26
2019-05-16T04:52:13.413Z,1016.27
2019-05-16T04:53:12.400Z,1016.28
2019-05-16T04:53:44.507Z,1016.28
2019-05-16T04:54:13.411Z,1016.29
2019-05-16T04:54:47.347Z,1016.29
2019-05-16T04:55:43.526Z,1016.30
2019-05-16T04:56:12.409Z,1016.31
2019-05-16T04:56:42.462Z,1016.35
2019-05-16T04:57:13.414Z,1016.35
2019-05-16T04:58:12.408Z,1016.31
2019-05-16T04:58:42.456Z,1016.35
2019-05-16T04:59:17.021Z,1016.34
2019-05-16T04:59:43.488Z,1016.35
2019-05-16T05:00:43.499Z,1016.37
2019-05-16T05:01:12.435Z,1016.37
2019-05-16T05:01:43.479Z,1016.37
2019-05-16T05:02:14.191Z,1016.35
2019-05-16T05:03:15.109Z,1016.42
2019-05-16T05:04:01.546Z,1016.42
2019-05-16T05:04:22.178Z,1016.43
2019-05-16T05:04:43.480Z,1016.41
2019-05-16T05:05:43.472Z,1016.42
2019-05-16T05:06:12.403Z,1016.42
2019-05-16T05:06:42.462Z,1016.42
2019-05-16T05:07:12.402Z,1016.41
2019-05-16T05:08:12.405Z,1016.40
2019-05-16T05:08:53.683Z,1016.42
2019-05-16T05:09:12.399Z,1016.43
2019-05-16T05:09:42.460Z,1016.42
2019-05-16T05:10:42.462Z,1016.40
2019-05-16T05:11:12.407Z,1016.39
2019-05-16T05:11:43.479Z,1016.38
2019-05-16T05:12:12.474Z,1016.41
2019-05-16T05:13:12.405Z,1016.39
2019-05-16T05:13:46.161Z,1016.40
2019-05-16T05:14:12.487Z,1016.36
2019-05-16T05:14:43.199Z,1016.38
2019-05-16T05:15:44.143Z,1016.34
2019-05-16T05:16:12.460Z,1016.37
2019-05-16T05:16:43.552Z,1016.33
2019-05-16T05:17:12.405Z,1016.34
2019-05-16T05:18:12.407Z,1016.33
2019-05-16T05:18:42.465Z,1016.32
2019-05-16T05:19:12.404Z,1016.30
2019-05-16T05:19:43.496Z,1016.31
2019-05-16T05:20:42.466Z,1016.29
2019-05-16T05:21:13.419Z,1016.30
2019-05-16T05:21:42.469Z,1016.28
2019-05-16T05:22:12.403Z,1016.28
2019-05-16T05:22:41.456Z,1016.27
2019-05-16T05:23:14.174Z,1016.29
2019-05-16T05:23:42.473Z,1016.26
2019-05-16T05:24:15.145Z,1016.25
2019-05-16T05:24:42.490Z,1016.26
2019-05-16T05:25:42.468Z,1016.22
2019-05-16T05:26:15.190Z,1016.22
2019-05-16T05:26:43.481Z,1016.24
2019-05-16T05:27:12.407Z,1016.23
2019-05-16T05:28:14.435Z,1016.22
2019-05-16T05:28:42.484Z,1016.23
2019-05-16T05:29:12.405Z,1016.24
2019-05-16T05:29:41.459Z,1016.25
2019-05-16T05:30:42.468Z,1016.21
2019-05-16T05:31:12.410Z,1016.24
2019-05-16T05:31:46.502Z,1016.22
2019-05-16T05:32:16.441Z,1016.24
2019-05-16T05:33:11.399Z,1016.25
2019-05-16T05:33:44.329Z,1016.25
2019-05-16T05:34:12.402Z,1016.23
2019-05-16T05:34:41.476Z,1016.24
2019-05-16T05:35:43.358Z,1016.22
2019-05-16T05:36:13.428Z,1016.20
2019-05-16T05:36:45.276Z,1016.24
2019-05-16T05:37:13.528Z,1016.23
2019-05-16T05:38:12.405Z,1016.23
2019-05-16T05:38:42.482Z,1016.23
2019-05-16T05:39:16.442Z,1016.23
2019-05-16T05:39:41.459Z,1016.23
2019-05-16T05:40:42.476Z,1016.21
2019-05-16T05:41:12.463Z,1016.18
2019-05-16T05:41:41.458Z,1016.20
2019-05-16T05:42:12.421Z,1016.21
2019-05-16T05:42:41.460Z,1016.22
2019-05-16T05:43:12.427Z,1016.21
2019-05-16T05:43:41.478Z,1016.23
2019-05-16T05:44:14.210Z,1016.22
2019-05-16T05:44:41.462Z,1016.22
2019-05-16T05:45:15.219Z,1016.24
2019-05-16T05:45:41.462Z,1016.23
2019-05-16T05:46:13.247Z,1016.22
2019-05-16T05:46:41.473Z,1016.21
2019-05-16T05:47:15.200Z,1016.23
2019-05-16T05:47:42.542Z,1016.26
2019-05-16T05:48:12.415Z,1016.26
2019-05-16T05:48:42.483Z,1016.23
2019-05-16T05:49:12.421Z,1016.21
2019-05-16T05:49:42.523Z,1016.24
2019-05-16T05:50:13.424Z,1016.22
2019-05-16T05:50:41.465Z,1016.25
2019-05-16T05:51:13.423Z,1016.24
2019-05-16T05:51:42.525Z,1016.25
2019-05-16T05:52:13.422Z,1016.24
2019-05-16T05:52:45.745Z,1016.22
2019-05-16T05:53:12.416Z,1016.24
2019-05-16T05:53:41.510Z,1016.24
2019-05-16T05:54:12.419Z,1016.22
2019-05-16T05:54:44.348Z,1016.25
2019-05-16T05:55:12.409Z,1016.24
2019-05-16T05:55:45.068Z,1016.24
2019-05-16T05:56:13.431Z,1016.23
2019-05-16T05:56:43.235Z,1016.23
2019-05-16T05:57:11.406Z,1016.21
2019-05-16T05:57:45.291Z,1016.22
2019-05-16T05:58:11.406Z,1016.23
2019-05-16T05:58:42.477Z,1016.22
2019-05-16T05:59:13.425Z,1016.24
2019-05-16T05:59:42.475Z,1016.22
2019-05-16T06:00:11.399Z,1016.24
2019-05-16T06:00:42.480Z,1016.21
2019-05-16T06:01:12.422Z,1016.22
2019-05-16T06:01:42.475Z,1016.25
2019-05-16T06:02:13.534Z,1016.24
2019-05-16T06:02:42.471Z,1016.23
2019-05-16T06:03:12.423Z,1016.27
2019-05-16T06:03:41.467Z,1016.24
2019-05-16T06:04:12.488Z,1016.24
2019-05-16T06:04:41.464Z,1016.27
2019-05-16T06:05:14.243Z,1016.24
2019-05-16T06:05:42.482Z,1016.26
2019-05-16T06:06:15.091Z,1016.27
2019-05-16T06:06:46.523Z,1016.24
2019-05-16T06:07:13.163Z,1016.27
2019-05-16T06:07:42.470Z,1016.27
2019-05-16T06:08:15.135Z,1016.25
2019-05-16T06:08:42.474Z,1016.27
2019-05-16T06:09:28.186Z,1016.28
2019-05-16T06:09:53.359Z,1016.25
2019-05-16T06:10:12.433Z,1016.24
2019-05-16T06:10:42.477Z,1016.28
2019-05-16T06:11:11.408Z,1016.28
2019-05-16T06:11:42.490Z,1016.27
2019-05-16T06:12:12.427Z,1016.27
2019-05-16T06:12:43.534Z,1016.24
2019-05-16T06:13:12.416Z,1016.26
2019-05-16T06:13:42.477Z,1016.26
2019-05-16T06:14:11.413Z,1016.25
2019-05-16T06:14:43.510Z,1016.25
2019-05-16T06:15:13.426Z,1016.26
2019-05-16T06:15:43.185Z,1016.26
2019-05-16T06:16:12.419Z,1016.28
2019-05-16T06:16:45.143Z,1016.23
2019-05-16T06:17:13.436Z,1016.24
2019-05-16T06:17:43.218Z,1016.26
2019-05-16T06:18:12.428Z,1016.26
2019-05-16T06:18:44.163Z,1016.28
2019-05-16T06:19:12.419Z,1016.26
2019-05-16T06:19:41.495Z,1016.25
2019-05-16T06:20:16.455Z,1016.25
2019-05-16T06:20:41.484Z,1016.26
2019-05-16T06:21:13.429Z,1016.26
2019-05-16T06:21:46.513Z,1016.28
2019-05-16T06:22:12.421Z,1016.27
2019-05-16T06:22:42.478Z,1016.28
2019-05-16T06:23:12.418Z,1016.26
2019-05-16T06:23:42.473Z,1016.25
2019-05-16T06:24:12.425Z,1016.29
2019-05-16T06:24:41.473Z,1016.26
2019-05-16T06:25:14.453Z,1016.28
2019-05-16T06:25:42.473Z,1016.25
2019-05-16T06:26:14.365Z,1016.29
2019-05-16T06:26:41.469Z,1016.27
2019-05-16T06:27:14.307Z,1016.26
2019-05-16T06:27:42.481Z,1016.24
2019-05-16T06:28:13.151Z,1016.28
2019-05-16T06:28:42.495Z,1016.24
2019-05-16T06:29:15.104Z,1016.25
2019-05-16T06:29:41.475Z,1016.21
2019-05-16T06:30:13.435Z,1016.23
2019-05-16T06:30:42.488Z,1016.24
2019-05-16T06:31:16.485Z,1016.20
2019-05-16T06:31:42.477Z,1016.22
2019-05-16T06:32:12.423Z,1016.24
2019-05-16T06:32:41.467Z,1016.22
2019-05-16T06:33:12.486Z,1016.20
2019-05-16T06:33:42.479Z,1016.19
2019-05-16T06:34:16.460Z,1016.21
2019-05-16T06:34:42.483Z,1016.20
2019-05-16T06:35:11.466Z,1016.19
2019-05-16T06:35:41.478Z,1016.19
2019-05-16T06:36:12.423Z,1016.17
2019-05-16T06:36:43.173Z,1016.19
2019-05-16T06:37:11.423Z,1016.23
2019-05-16T06:37:45.137Z,1016.23
2019-05-16T06:38:11.411Z,1016.19
2019-05-16T06:38:43.189Z,1016.21
2019-05-16T06:39:13.434Z,1016.19
2019-05-16T06:40:12.417Z,1016.19
2019-05-16T06:40:41.516Z,1016.20
2019-05-16T06:41:12.422Z,1016.23
2019-05-16T06:41:41.551Z,1016.23
2019-05-16T06:42:11.415Z,1016.22
2019-05-16T06:42:42.496Z,1016.24
2019-05-16T06:43:12.425Z,1016.23